createdAt,value
2019-05-11T00:00:52.306Z,92.70
2019-05-11T00:03:20.564Z,92.60
2019-05-11T00:05:48.856Z,92.60
2019-05-11T00:08:17.142Z,92.80
2019-05-11T00:10:45.398Z,93.00
2019-05-11T00:13:13.685Z,92.90
2019-05-11T00:15:42.018Z,92.90
2019-05-11T00:18:10.289Z,92.90
2019-05-11T00:20:38.582Z,92.80
2019-05-11T00:23:06.825Z,92.50
2019-05-11T00:25:35.102Z,93.30
2019-05-11T00:28:03.344Z,93.30
2019-05-11T00:30:31.672Z,93.10
2019-05-11T00:32:59.903Z,93.00
2019-05-11T00:35:28.189Z,92.80
2019-05-11T00:37:56.514Z,92.80
2019-05-11T00:40:24.765Z,92.90
2019-05-11T00:42:53.010Z,93.00
2019-05-11T00:45:21.272Z,93.30
2019-05-11T00:47:49.510Z,93.10
2019-05-11T00:50:17.836Z,93.10
2019-05-11T00:52:46.085Z,93.00
2019-05-11T00:55:14.333Z,92.90
2019-05-11T00:57:42.605Z,92.80
2019-05-11T01:00:10.862Z,92.80
2019-05-11T01:02:39.089Z,92.90
2019-05-11T01:05:07.914Z,93.10
2019-05-11T01:07:36.140Z,93.30
2019-05-11T01:10:06.385Z,93.70
2019-05-11T01:12:34.655Z,93.90
2019-05-11T01:15:02.886Z,93.80
2019-05-11T01:17:31.173Z,94.00
2019-05-11T01:19:59.936Z,94.20
2019-05-11T01:22:28.185Z,94.00
2019-05-11T01:24:56.452Z,94.20
2019-05-11T01:27:24.804Z,94.00
2019-05-11T01:29:53.012Z,93.90
2019-05-11T01:32:21.317Z,93.70
2019-05-11T01:34:49.558Z,93.70
2019-05-11T01:37:17.837Z,93.80
2019-05-11T01:39:46.069Z,93.70
2019-05-11T01:42:14.322Z,93.40
2019-05-11T01:44:42.566Z,93.30
2019-05-11T01:47:10.885Z,93.20
2019-05-11T01:49:39.139Z,93.20
2019-05-11T01:52:07.435Z,93.20
2019-05-11T01:54:35.686Z,93.40
2019-05-11T01:57:03.988Z,93.40
2019-05-11T01:59:32.245Z,93.40
2019-05-11T02:02:00.530Z,93.60
2019-05-11T02:04:28.737Z,93.50
2019-05-11T02:06:56.988Z,93.50
2019-05-11T02:09:25.233Z,93.50
2019-05-11T02:11:53.544Z,93.40
2019-05-11T02:14:21.778Z,93.60
2019-05-11T02:16:50.037Z,93.50
2019-05-11T02:19:18.293Z,93.60
2019-05-11T02:21:46.524Z,93.50
2019-05-11T02:24:14.870Z,93.50
2019-05-11T02:26:43.121Z,93.60
2019-05-11T02:29:11.372Z,93.50
2019-05-11T02:31:39.640Z,93.50
2019-05-11T02:34:07.945Z,93.50
2019-05-11T02:36:36.165Z,93.50
2019-05-11T02:39:06.625Z,93.30
2019-05-11T02:41:37.175Z,93.50
2019-05-11T02:44:05.719Z,93.60
2019-05-11T02:46:33.942Z,93.90
2019-05-11T02:49:02.198Z,93.60
2019-05-11T02:51:30.788Z,93.70
2019-05-11T02:53:59.043Z,93.70
2019-05-11T02:56:27.297Z,94.00
2019-05-11T02:58:55.562Z,93.50
2019-05-11T03:01:23.853Z,93.60
2019-05-11T03:03:52.099Z,93.70
2019-05-11T03:06:20.337Z,93.80
2019-05-11T03:08:48.573Z,93.90
2019-05-11T03:11:16.833Z,94.20
2019-05-11T03:13:45.065Z,94.10
2019-05-11T03:16:13.325Z,94.00
2019-05-11T03:18:41.567Z,93.90
2019-05-11T03:21:09.817Z,93.80
2019-05-11T03:23:38.053Z,93.60
2019-05-11T03:26:06.311Z,93.60
2019-05-11T03:28:34.550Z,93.60
2019-05-11T03:31:02.810Z,93.80
2019-05-11T03:33:31.118Z,93.40
2019-05-11T03:35:59.366Z,93.50
2019-05-11T03:38:27.600Z,93.40
2019-05-11T03:40:55.861Z,93.40
2019-05-11T03:43:24.099Z,93.40
2019-05-11T03:45:52.346Z,93.30
2019-05-11T03:48:20.594Z,93.40
2019-05-11T03:50:48.828Z,93.40
2019-05-11T03:53:17.071Z,93.40
2019-05-11T03:55:45.320Z,93.50
2019-05-11T03:58:13.574Z,93.60
2019-05-11T04:00:41.792Z,93.60
2019-05-11T04:03:10.041Z,93.50
2019-05-11T04:05:38.289Z,93.50
2019-05-11T04:08:06.543Z,93.90
2019-05-11T04:10:34.801Z,93.90
2019-05-11T04:13:03.131Z,94.00
2019-05-11T04:15:31.353Z,94.00
2019-05-11T04:17:59.686Z,93.90
2019-05-11T04:20:27.981Z,94.20
2019-05-11T04:22:56.235Z,94.20
2019-05-11T04:25:24.472Z,94.10
2019-05-11T04:27:52.886Z,94.10
2019-05-11T04:30:21.123Z,94.00
2019-05-11T04:32:49.376Z,94.00
2019-05-11T04:35:17.607Z,94.10
2019-05-11T04:37:45.864Z,94.20
2019-05-11T04:40:14.109Z,94.10
2019-05-11T04:42:54.472Z,94.20
2019-05-11T04:45:12.331Z,94.00
2019-05-11T04:47:40.582Z,94.00
2019-05-11T04:50:08.884Z,94.20
2019-05-11T04:52:37.142Z,94.10
2019-05-11T04:55:05.444Z,94.00
2019-05-11T04:57:33.730Z,94.30
2019-05-11T05:00:01.969Z,94.10
2019-05-11T05:02:30.217Z,94.20
2019-05-11T05:04:58.444Z,94.10
2019-05-11T05:07:26.693Z,93.90
2019-05-11T05:09:54.995Z,93.90
2019-05-11T05:12:23.249Z,94.00
2019-05-11T05:14:51.485Z,94.20
2019-05-11T05:17:19.713Z,94.40
2019-05-11T05:19:47.977Z,94.50
2019-05-11T05:22:16.218Z,94.50
2019-05-11T05:24:44.469Z,94.40
2019-05-11T05:27:12.729Z,94.20
2019-05-11T05:29:40.988Z,94.20
2019-05-11T05:32:09.300Z,94.20
2019-05-11T05:34:37.554Z,94.40
2019-05-11T05:37:05.800Z,94.40
2019-05-11T05:39:34.052Z,94.40
2019-05-11T05:42:02.305Z,94.40
2019-05-11T05:44:30.550Z,94.40
2019-05-11T05:46:58.805Z,94.60
2019-05-11T05:49:27.057Z,94.90
2019-05-11T05:51:58.272Z,95.10
2019-05-11T05:54:25.285Z,95.10
2019-05-11T05:56:53.507Z,95.00
2019-05-11T05:59:21.744Z,95.00
2019-05-11T06:01:50.009Z,94.70
2019-05-11T06:04:18.238Z,94.40
2019-05-11T06:06:46.497Z,94.50
2019-05-11T06:09:14.737Z,94.70
2019-05-11T06:11:42.991Z,94.30
2019-05-11T06:14:11.238Z,94.30
2019-05-11T06:16:39.478Z,94.30
2019-05-11T06:19:07.712Z,94.30
2019-05-11T06:21:35.961Z,94.30
2019-05-11T06:24:06.795Z,93.10
2019-05-11T06:26:34.169Z,93.30
2019-05-11T06:29:02.405Z,93.60
2019-05-11T06:31:32.338Z,92.90
2019-05-11T06:34:00.564Z,93.20
2019-05-11T06:36:28.852Z,92.60
2019-05-11T06:38:57.073Z,92.50
2019-05-11T06:41:25.428Z,93.40
2019-05-11T06:44:01.901Z,93.50
2019-05-11T06:46:23.637Z,94.00
2019-05-11T06:48:51.872Z,94.30
2019-05-11T06:51:20.110Z,93.30
2019-05-11T06:53:48.371Z,93.20
2019-05-11T06:56:16.645Z,93.20
2019-05-11T06:58:45.576Z,93.60
2019-05-11T07:01:14.020Z,93.00
2019-05-11T07:03:42.256Z,93.60
2019-05-11T07:06:10.534Z,92.80
2019-05-11T07:08:38.777Z,92.60
2019-05-11T07:11:07.034Z,92.30
2019-05-11T07:13:35.299Z,91.60
2019-05-11T07:16:03.519Z,90.60
2019-05-11T07:18:31.773Z,90.20
2019-05-11T07:21:00.021Z,88.60
2019-05-11T07:23:28.288Z,88.90
2019-05-11T07:26:00.024Z,89.20
2019-05-11T07:28:26.515Z,87.50
2019-05-11T07:30:54.747Z,87.70
2019-05-11T07:33:22.993Z,87.10
2019-05-11T07:35:51.264Z,87.00
2019-05-11T07:38:19.520Z,85.00
2019-05-11T07:40:47.781Z,84.70
2019-05-11T07:43:18.556Z,85.00
2019-05-11T07:45:48.004Z,83.90
2019-05-11T07:48:15.944Z,83.10
2019-05-11T07:50:47.960Z,82.70
2019-05-11T07:53:15.879Z,82.10
2019-05-11T07:55:44.129Z,83.40
2019-05-11T07:58:12.407Z,82.30
2019-05-11T08:00:40.721Z,83.10
2019-05-11T08:03:09.139Z,82.40
2019-05-11T08:05:38.545Z,82.10
2019-05-11T08:08:08.729Z,81.50
2019-05-11T08:10:39.126Z,81.70
2019-05-11T08:13:09.093Z,80.50
2019-05-11T08:15:38.254Z,81.70
2019-05-11T08:18:08.528Z,80.10
2019-05-11T08:20:38.505Z,79.40
2019-05-11T08:23:08.897Z,78.20
2019-05-11T08:25:37.921Z,77.40
2019-05-11T08:28:11.611Z,76.70
2019-05-11T08:30:38.129Z,75.80
2019-05-11T08:33:08.519Z,74.70
2019-05-11T08:35:38.792Z,74.20
2019-05-11T08:38:08.644Z,71.00
2019-05-11T08:40:37.905Z,72.70
2019-05-11T08:43:08.623Z,70.50
2019-05-11T08:45:36.412Z,71.30
2019-05-11T08:48:04.673Z,67.90
2019-05-11T08:50:32.910Z,70.20
2019-05-11T08:53:01.158Z,69.90
2019-05-11T08:55:29.401Z,68.40
2019-05-11T08:57:58.588Z,66.60
2019-05-11T09:00:28.379Z,65.70
2019-05-11T09:02:58.236Z,61.30
2019-05-11T09:05:28.074Z,64.80
2019-05-11T09:07:57.787Z,63.90
2019-05-11T09:10:28.111Z,60.00
2019-05-11T09:12:58.858Z,60.50
2019-05-11T09:15:36.486Z,58.80
2019-05-11T09:17:57.769Z,60.30
2019-05-11T09:20:28.347Z,61.80
2019-05-11T09:22:58.721Z,60.90
2019-05-11T09:25:27.765Z,59.80
2019-05-11T09:27:58.511Z,60.00
2019-05-11T09:30:26.167Z,60.90
2019-05-11T09:32:54.421Z,62.90
2019-05-11T09:35:22.660Z,67.00
2019-05-11T09:37:50.919Z,69.20
2019-05-11T09:40:19.171Z,72.00
2019-05-11T09:42:48.020Z,76.30
2019-05-11T09:45:18.572Z,74.00
2019-05-11T09:47:47.731Z,75.40
2019-05-11T09:50:17.883Z,78.80
2019-05-11T09:52:46.109Z,76.00
2019-05-11T09:55:14.354Z,75.70
2019-05-11T09:57:42.617Z,74.50
2019-05-11T10:00:10.919Z,71.40
2019-05-11T10:02:39.263Z,70.90
2019-05-11T10:05:08.356Z,68.60
2019-05-11T10:07:38.023Z,58.90
2019-05-11T10:10:09.159Z,58.60
2019-05-11T10:12:38.028Z,56.80
2019-05-11T10:15:08.666Z,56.50
2019-05-11T10:17:38.225Z,53.80
2019-05-11T10:20:09.206Z,54.60
2019-05-11T10:22:38.417Z,53.20
2019-05-11T10:25:08.984Z,52.90
2019-05-11T10:27:38.343Z,52.00
2019-05-11T10:30:08.291Z,51.70
2019-05-11T10:32:37.951Z,52.20
2019-05-11T10:35:07.962Z,52.50
2019-05-11T10:37:38.688Z,50.60
2019-05-11T10:40:06.586Z,49.40
2019-05-11T10:42:34.817Z,49.60
2019-05-11T10:45:03.069Z,50.20
2019-05-11T10:47:31.314Z,52.40
2019-05-11T10:49:59.569Z,52.10
2019-05-11T10:52:28.562Z,49.20
2019-05-11T10:54:58.589Z,49.10
2019-05-11T10:57:28.251Z,52.10
2019-05-11T10:59:57.948Z,49.10
2019-05-11T11:02:27.739Z,51.00
2019-05-11T11:04:56.298Z,52.00
2019-05-11T11:07:28.873Z,49.60
2019-05-11T11:09:58.060Z,50.70
2019-05-11T11:12:27.870Z,49.00
2019-05-11T11:14:58.555Z,49.40
2019-05-11T11:17:28.584Z,48.40
2019-05-11T11:19:58.039Z,48.70
2019-05-11T11:22:38.999Z,48.40
2019-05-11T11:24:58.742Z,47.40
2019-05-11T11:27:26.425Z,48.20
2019-05-11T11:29:54.674Z,47.00
2019-05-11T11:32:22.939Z,48.60
2019-05-11T11:34:51.254Z,49.30
2019-05-11T11:37:19.504Z,47.80
2019-05-11T11:39:47.757Z,47.80
2019-05-11T11:42:17.859Z,46.60
2019-05-11T11:44:48.254Z,46.50
2019-05-11T11:47:21.278Z,46.20
2019-05-11T11:49:47.551Z,46.20
2019-05-11T11:52:16.031Z,46.90
2019-05-11T11:54:44.336Z,47.20
2019-05-11T11:57:12.579Z,46.00
2019-05-11T11:59:40.837Z,44.70
2019-05-11T12:02:09.078Z,46.50
2019-05-11T12:04:38.857Z,44.50
2019-05-11T12:07:08.418Z,44.20
2019-05-11T12:09:37.765Z,44.80
2019-05-11T12:12:07.971Z,46.80
2019-05-11T12:14:38.339Z,45.40
2019-05-11T12:17:08.695Z,46.60
2019-05-11T12:19:38.141Z,45.40
2019-05-11T12:22:08.433Z,47.70
2019-05-11T12:24:37.552Z,47.60
2019-05-11T12:27:07.699Z,47.80
2019-05-11T12:29:35.905Z,47.50
2019-05-11T12:32:08.016Z,45.60
2019-05-11T12:34:37.527Z,46.20
2019-05-11T12:37:06.018Z,46.60
2019-05-11T12:39:34.832Z,48.40
2019-05-11T12:42:03.093Z,48.60
2019-05-11T12:44:31.316Z,49.50
2019-05-11T12:46:59.572Z,51.20
2019-05-11T12:49:28.977Z,49.90
2019-05-11T12:51:58.093Z,47.60
2019-05-11T12:54:28.053Z,49.50
2019-05-11T12:56:57.926Z,49.50
2019-05-11T12:59:27.874Z,49.60
2019-05-11T13:01:58.803Z,48.20
2019-05-11T13:04:28.237Z,47.90
2019-05-11T13:06:58.191Z,45.80
2019-05-11T13:09:28.611Z,47.70
2019-05-11T13:11:58.538Z,47.70
2019-05-11T13:14:27.740Z,47.50
2019-05-11T13:16:56.089Z,49.40
2019-05-11T13:19:24.338Z,45.40
2019-05-11T13:21:52.596Z,44.00
2019-05-11T13:24:20.920Z,45.20
2019-05-11T13:26:49.201Z,43.80
2019-05-11T13:29:18.148Z,44.70
2019-05-11T13:31:48.519Z,44.00
2019-05-11T13:34:17.961Z,45.20
2019-05-11T13:36:48.742Z,45.50
2019-05-11T13:39:18.116Z,45.80
2019-05-11T13:41:47.586Z,46.70
2019-05-11T13:44:18.405Z,47.40
2019-05-11T13:46:47.961Z,46.60
2019-05-11T13:49:17.888Z,46.80
2019-05-11T13:51:47.994Z,46.20
2019-05-11T13:54:18.261Z,48.10
2019-05-11T13:56:48.162Z,52.60
2019-05-11T13:59:15.944Z,56.30
2019-05-11T14:01:44.210Z,59.60
2019-05-11T14:04:12.577Z,62.00
2019-05-11T14:06:40.841Z,66.60
2019-05-11T14:09:09.303Z,64.90
2019-05-11T14:11:39.019Z,64.00
2019-05-11T14:14:07.824Z,67.80
2019-05-11T14:16:37.858Z,68.70
2019-05-11T14:19:08.364Z,70.00
2019-05-11T14:21:38.535Z,71.20
2019-05-11T14:24:07.772Z,72.40
2019-05-11T14:26:38.651Z,74.20
2019-05-11T14:29:08.494Z,74.50
2019-05-11T14:31:38.630Z,74.50
2019-05-11T14:34:08.678Z,76.30
2019-05-11T14:36:38.541Z,79.10
2019-05-11T14:39:08.409Z,82.00
2019-05-11T14:41:38.102Z,83.20
2019-05-11T14:44:08.820Z,79.10
2019-05-11T14:46:38.411Z,76.50
2019-05-11T14:49:07.976Z,72.00
2019-05-11T14:51:38.819Z,71.40
2019-05-11T14:54:08.223Z,68.20
2019-05-11T14:56:37.994Z,70.90
2019-05-11T14:59:08.641Z,70.00
2019-05-11T15:01:38.228Z,74.70
2019-05-11T15:04:08.785Z,75.80
2019-05-11T15:06:38.420Z,76.70
2019-05-11T15:09:07.819Z,77.80
2019-05-11T15:11:38.627Z,79.20
2019-05-11T15:14:08.089Z,81.00
2019-05-11T15:16:38.294Z,83.30
2019-05-11T15:19:08.075Z,85.90
2019-05-11T15:21:38.500Z,85.30
2019-05-11T15:24:08.755Z,87.70
2019-05-11T15:26:38.125Z,86.50
2019-05-11T15:29:08.131Z,89.10
2019-05-11T15:31:38.085Z,89.80
2019-05-11T15:34:08.301Z,88.90
2019-05-11T15:36:38.406Z,87.20
2019-05-11T15:39:07.747Z,87.00
2019-05-11T15:41:38.586Z,86.80
2019-05-11T15:44:08.767Z,87.30
2019-05-11T15:46:38.743Z,89.00
2019-05-11T15:49:08.609Z,88.80
2019-05-11T15:51:38.341Z,86.60
2019-05-11T15:54:07.900Z,84.80
2019-05-11T15:56:38.310Z,85.50
2019-05-11T15:59:08.366Z,86.70
2019-05-11T16:01:38.272Z,86.90
2019-05-11T16:04:08.805Z,86.30
2019-05-11T16:06:36.159Z,87.40
2019-05-11T16:09:08.348Z,84.40
2019-05-11T16:11:38.538Z,84.80
2019-05-11T16:14:08.765Z,87.30
2019-05-11T16:16:38.730Z,84.90
2019-05-11T16:19:13.550Z,85.40
2019-05-11T16:21:38.237Z,89.00
2019-05-11T16:24:25.610Z,90.00
2019-05-11T16:26:53.854Z,90.10
2019-05-11T16:29:22.076Z,90.00
2019-05-11T16:31:50.337Z,90.40
2019-05-11T16:34:18.622Z,89.80
2019-05-11T16:36:47.985Z,89.40
2019-05-11T16:39:18.507Z,87.20
2019-05-11T16:41:48.522Z,87.60
2019-05-11T16:44:18.297Z,86.00
2019-05-11T16:46:47.996Z,86.80
2019-05-11T16:49:26.159Z,86.50
2019-05-11T16:51:46.272Z,86.60
2019-05-11T16:54:14.518Z,87.50
2019-05-11T16:56:42.787Z,87.80
2019-05-11T16:59:11.054Z,88.60
2019-05-11T17:01:39.276Z,88.90
2019-05-11T17:04:07.542Z,87.90
2019-05-11T17:06:38.314Z,88.30
2019-05-11T17:09:08.883Z,88.30
2019-05-11T17:11:38.299Z,87.40
2019-05-11T17:14:08.099Z,85.60
2019-05-11T17:16:38.511Z,86.80
2019-05-11T17:19:07.894Z,86.90
2019-05-11T17:21:38.106Z,88.40
2019-05-11T17:24:06.181Z,89.50
2019-05-11T17:26:34.429Z,89.70
2019-05-11T17:29:02.691Z,89.90
2019-05-11T17:31:30.911Z,89.80
2019-05-11T17:33:59.175Z,90.00
2019-05-11T17:36:27.943Z,90.70
2019-05-11T17:38:58.266Z,91.20
2019-05-11T17:41:27.936Z,91.00
2019-05-11T17:43:58.247Z,90.90
2019-05-11T17:46:27.830Z,91.20
2019-05-11T17:48:56.356Z,91.50
2019-05-11T17:51:25.216Z,91.60
2019-05-11T17:53:53.574Z,91.90
2019-05-11T17:56:21.810Z,91.70
2019-05-11T17:58:50.146Z,91.50
2019-05-11T18:01:18.750Z,91.50
2019-05-11T18:03:47.417Z,91.40
2019-05-11T18:06:15.673Z,91.50
2019-05-11T18:08:43.925Z,91.70
2019-05-11T18:11:12.251Z,92.00
2019-05-11T18:13:40.487Z,92.10
2019-05-11T18:16:08.762Z,92.00
2019-05-11T18:18:37.836Z,92.00
2019-05-11T18:21:08.320Z,91.90
2019-05-11T18:23:38.568Z,92.00
2019-05-11T18:26:08.639Z,92.10
2019-05-11T18:28:37.811Z,92.20
2019-05-11T18:31:06.415Z,91.50
2019-05-11T18:33:34.660Z,91.40
2019-05-11T18:36:02.917Z,91.40
2019-05-11T18:38:31.178Z,91.50
2019-05-11T18:41:01.079Z,91.70
2019-05-11T18:43:29.313Z,91.80
2019-05-11T18:45:58.308Z,91.80
2019-05-11T18:48:28.927Z,92.00
2019-05-11T18:50:59.020Z,92.40
2019-05-11T18:53:28.791Z,92.00
2019-05-11T18:55:58.982Z,91.90
2019-05-11T18:58:27.862Z,92.10
2019-05-11T19:00:56.252Z,92.30
2019-05-11T19:03:24.501Z,92.30
2019-05-11T19:05:52.785Z,92.30
2019-05-11T19:08:21.058Z,92.30
2019-05-11T19:10:49.306Z,92.40
2019-05-11T19:13:17.577Z,92.60
2019-05-11T19:15:48.459Z,92.60
2019-05-11T19:18:15.853Z,92.60
2019-05-11T19:20:46.164Z,92.50
2019-05-11T19:23:14.168Z,92.70
2019-05-11T19:25:42.394Z,92.70
2019-05-11T19:28:10.687Z,92.60
2019-05-11T19:30:38.990Z,92.70
2019-05-11T19:33:08.180Z,92.60
2019-05-11T19:35:37.844Z,92.60
2019-05-11T19:38:08.481Z,92.60
2019-05-11T19:40:38.450Z,92.40
2019-05-11T19:43:08.237Z,92.80
2019-05-11T19:45:38.374Z,92.80
2019-05-11T19:48:08.160Z,92.90
2019-05-11T19:50:40.344Z,92.60
2019-05-11T19:53:08.222Z,92.80
2019-05-11T19:55:36.116Z,92.60
2019-05-11T19:58:04.367Z,92.90
2019-05-11T20:00:32.617Z,92.40
2019-05-11T20:03:00.848Z,92.80
2019-05-11T20:05:29.126Z,92.80
2019-05-11T20:07:58.678Z,92.90
2019-05-11T20:10:27.760Z,92.90
2019-05-11T20:12:58.548Z,92.90
2019-05-11T20:15:26.234Z,92.90
2019-05-11T20:17:54.466Z,92.80
2019-05-11T20:20:22.738Z,93.10
2019-05-11T20:22:50.966Z,92.90
2019-05-11T20:25:19.479Z,93.30
2019-05-11T20:27:49.014Z,93.40
2019-05-11T20:30:18.391Z,93.20
2019-05-11T20:32:48.439Z,93.20
2019-05-11T20:35:17.267Z,93.10
2019-05-11T20:37:45.547Z,93.10
2019-05-11T20:40:13.840Z,93.10
2019-05-11T20:42:42.099Z,93.10
2019-05-11T20:45:10.345Z,93.20
2019-05-11T20:47:38.603Z,93.00
2019-05-11T20:50:07.884Z,92.90
2019-05-11T20:52:38.761Z,93.00
2019-05-11T20:55:08.912Z,92.80
2019-05-11T20:57:39.296Z,92.80
2019-05-11T21:00:09.618Z,92.90
2019-05-11T21:02:38.286Z,92.60
2019-05-11T21:05:09.033Z,92.90
2019-05-11T21:07:38.783Z,92.80
2019-05-11T21:10:08.632Z,92.90
2019-05-11T21:12:38.585Z,92.60
2019-05-11T21:15:08.040Z,92.40
2019-05-11T21:17:36.301Z,92.20
2019-05-11T21:20:08.835Z,92.40
2019-05-11T21:22:40.197Z,92.40
2019-05-11T21:25:09.049Z,92.70
2019-05-11T21:27:38.341Z,92.50
2019-05-11T21:30:09.155Z,92.40
2019-05-11T21:32:38.800Z,92.70
2019-05-11T21:35:08.822Z,92.30
2019-05-11T21:37:38.692Z,92.30
2019-05-11T21:40:08.549Z,92.20
2019-05-11T21:42:39.068Z,92.20
2019-05-11T21:45:09.223Z,91.80
2019-05-11T21:47:38.660Z,91.90
2019-05-11T21:50:08.319Z,92.00
2019-05-11T21:52:38.395Z,92.30
2019-05-11T21:55:09.544Z,91.90
2019-05-11T21:57:37.192Z,92.10
2019-05-11T22:00:08.856Z,92.00
2019-05-11T22:02:38.435Z,92.20
2019-05-11T22:05:07.443Z,92.40
2019-05-11T22:07:41.378Z,92.30
2019-05-11T22:10:08.883Z,92.10
2019-05-11T22:12:38.854Z,92.30
2019-05-11T22:15:09.097Z,92.20
2019-05-11T22:17:39.318Z,92.00
2019-05-11T22:20:08.091Z,91.80
2019-05-11T22:22:38.561Z,92.10
2019-05-11T22:25:07.927Z,92.00
2019-05-11T22:27:38.608Z,91.90
2019-05-11T22:30:08.373Z,91.90
2019-05-11T22:32:38.378Z,92.00
2019-05-11T22:35:08.731Z,91.90
2019-05-11T22:37:38.633Z,92.20
2019-05-11T22:40:08.376Z,91.80
2019-05-11T22:42:36.859Z,91.50
2019-05-11T22:45:08.425Z,91.70
2019-05-11T22:47:39.174Z,92.00
2019-05-11T22:50:07.953Z,91.90
2019-05-11T22:52:37.401Z,91.90
2019-05-11T22:55:08.974Z,91.50
2019-05-11T22:57:38.075Z,91.60
2019-05-11T23:00:11.060Z,91.80
2019-05-11T23:02:39.351Z,91.60
2019-05-11T23:05:08.424Z,91.50
2019-05-11T23:07:40.841Z,91.60
2019-05-11T23:10:08.737Z,91.80
2019-05-11T23:12:38.292Z,92.00
2019-05-11T23:15:13.427Z,92.20
2019-05-11T23:17:41.869Z,91.90
2019-05-11T23:20:10.177Z,92.00
2019-05-11T23:22:56.839Z,92.00
2019-05-11T23:25:20.056Z,92.00
2019-05-11T23:27:48.818Z,91.80
2019-05-11T23:30:19.775Z,92.10
2019-05-11T23:32:48.561Z,91.90
2019-05-11T23:35:18.885Z,91.70
2019-05-11T23:37:49.660Z,91.90
2019-05-11T23:40:18.209Z,91.80
2019-05-11T23:42:49.038Z,92.10
2019-05-11T23:45:18.873Z,92.00
2019-05-11T23:47:48.689Z,92.50
2019-05-11T23:50:19.015Z,92.40
2019-05-11T23:52:50.165Z,92.40
2019-05-11T23:55:18.961Z,92.60
2019-05-11T23:57:48.586Z,92.40
